Etusivu
METAR-TAF:

METAR-TAF

Lentoasemat :

Baker City, Oregon, Yhdysvallat

Leveyspiiri: 44-50-14N, Pituuspiiri: 117-48-33W, korkeus merenpinnasta: 1028 m

Tämänhetkinen sää

Tämä raportti tehtiin 29 minuuttia sitten, kello 16.53 UTC
tyyntä
Lämpötila 8°C
Kosteus 49%
Ilmanpaine 1017 hPa
Näkyvyys: 16.1 km
selkeää

METAR: KBKE 301653Z AUTO 00000KT 10SM CLR 08/M02 A3002 RMK AO2 SLP175 T00781017

Aika: 10:22 (17:22 UTC)

Sääennuste

Tämä raportti tehtiin 5 tuntia ja 51 minuuttia sitten, kello 11.31 UTC
Ennuste voimassa 30. päivästä klo 12 UTC - 31. päivään klo 12 UTC
Tuuli 3 kn eri suunnista
Näkyvyys: 10 km
selkeää
From 30. päivästä klo 2000 UTC
Tuuli 12 kn luoteesta puuskistuen 22 kn:hen
Näkyvyys: 10 km
Hajonneita pilviä 12000 ft:n korkeudessa
From 31. päivästä klo 0500 UTC
Tuuli 6 kn lännestä/luoteesta
Näkyvyys: 10 km
selkeää

TAF: KBKE 301131Z 3012/3112 VRB03KT P6SM SKC FM302000 32012G22KT P6SM BKN120 FM310500 30006KT P6SM SKC

Säähavainnot ja -ennusteet yli 4000 lentoasemalta (METAR- ja TAF-raportit).

Käytössä olevat sääasemat on merkitty karttaan keltaisilla ja punaisilla pisteillä.

Aseta hiiri pisteen päälle nähdäksesi sääaseman nimen.

Klikkaa sitten nähdäksesi säähavainnot ja -ennusteet.

Kartan vaihtaminen: klikkaa mustalla rastilla varustettuja vihreitä pisteitä, niin voit zoomata sisään; viivalla varustettua vihreää pistettä, niin voit zoomata ulos tai vihreitä nuolia, niin pääset viereisille kartoille.


METAR-TAF: